aviador You're here:

PAEI Decoded Metar

FAIRBANKS in AK, USA
Report Time2017-12-18 02:56:00
UTC Time2017-12-18 03:26:25
Flight Rules mvfr MVFR
WindCalm
Visibility9999 m
Phenomena:N/A
Clouds:Overcast 014 Hf
Expected CloudBase > 400 ft AGL from Temp-Dew spread
Ceiling1,400 ft
Temp-8°C (ISA -22)
Dew Point-9°C (93% RH)
AAT-11.0°C
QNH1007 hPa
Density Alt-1,926 ft
Elevation548 ft
Report Wrong Elevation
Raw Report
PAEI 180256Z 00000KT 10SM OVC014 M08/M09 A2973=

Extra information for PAEI:More info

Metar Taf Metar & Taf Last 4 Metars F.Rules Stats Wind Profile Meteogram Temp Stats Airport Information Weather charts Add Link Nearby VenuesMetar ALERT Operation Metar Decoded Social comments

AIRNAV info for PAEI